createdAt,value
2023-02-05T00:01:36.552Z,3.30
2023-02-05T00:04:03.992Z,3.25
2023-02-05T00:06:31.453Z,3.15
2023-02-05T00:08:58.721Z,2.75
2023-02-05T00:11:26.687Z,3.38
2023-02-05T00:13:54.867Z,3.50
2023-02-05T00:16:25.361Z,3.17
2023-02-05T00:18:53.781Z,3.83
2023-02-05T00:21:22.593Z,3.20
2023-02-05T00:23:50.268Z,3.30
2023-02-05T00:26:17.692Z,2.83
2023-02-05T00:28:45.732Z,3.78
2023-02-05T00:31:23.620Z,2.92
2023-02-05T00:33:51.822Z,4.10
2023-02-05T00:36:20.534Z,3.05
2023-02-05T00:38:48.258Z,2.90
2023-02-05T00:41:16.114Z,3.55
2023-02-05T00:43:44.118Z,2.70
2023-02-05T00:46:12.751Z,2.95
2023-02-05T00:48:41.424Z,3.40
2023-02-05T00:51:09.933Z,3.15
2023-02-05T00:53:37.307Z,3.00
2023-02-05T00:56:04.677Z,3.00
2023-02-05T00:58:31.810Z,3.33
2023-02-05T01:00:59.219Z,3.08
2023-02-05T01:03:27.711Z,3.08
2023-02-05T01:05:54.902Z,2.88
2023-02-05T01:08:22.026Z,3.00
2023-02-05T01:10:50.953Z,3.03
2023-02-05T01:15:46.245Z,3.33
2023-02-05T01:18:13.434Z,3.70
2023-02-05T01:20:42.010Z,3.78
2023-02-05T01:23:09.346Z,3.05
2023-02-05T01:25:37.101Z,3.05
2023-02-05T01:28:04.583Z,3.17
2023-02-05T01:30:31.805Z,3.70
2023-02-05T01:32:59.052Z,3.63
2023-02-05T01:35:26.418Z,3.80
2023-02-05T01:37:53.641Z,3.08
2023-02-05T01:40:21.457Z,4.15
2023-02-05T01:42:48.739Z,3.70
2023-02-05T01:45:21.940Z,3.63
2023-02-05T01:47:52.356Z,3.92
2023-02-05T01:50:25.229Z,3.63
2023-02-05T01:52:55.513Z,3.13
2023-02-05T01:55:22.616Z,2.88
2023-02-05T01:57:51.243Z,3.63
2023-02-05T02:00:18.385Z,3.13
2023-02-05T02:02:45.936Z,3.72
2023-02-05T02:05:16.182Z,3.00
2023-02-05T02:07:43.358Z,3.35
2023-02-05T02:10:15.389Z,2.77
2023-02-05T02:12:45.239Z,3.65
2023-02-05T02:15:20.896Z,3.67
2023-02-05T02:17:51.804Z,2.92
2023-02-05T02:20:26.272Z,3.50
2023-02-05T02:22:56.313Z,3.25
2023-02-05T02:25:32.799Z,3.67
2023-02-05T02:28:14.377Z,3.63
2023-02-05T02:30:53.682Z,3.35
2023-02-05T02:33:27.483Z,3.50
2023-02-05T02:36:26.244Z,3.50
2023-02-05T02:39:02.192Z,3.20
2023-02-05T02:41:55.650Z,3.50
2023-02-05T02:44:47.197Z,3.90
2023-02-05T02:47:18.834Z,3.53
2023-02-05T02:49:50.864Z,4.03
2023-02-05T02:52:22.875Z,4.18
2023-02-05T02:54:54.207Z,3.65
2023-02-05T02:57:26.335Z,3.67
2023-02-05T02:59:59.588Z,3.65
2023-02-05T03:02:30.741Z,3.58
2023-02-05T03:05:04.325Z,4.13
2023-02-05T03:07:42.125Z,3.97
2023-02-05T03:10:28.688Z,4.03
2023-02-05T03:12:58.135Z,4.00
2023-02-05T03:15:26.433Z,3.20
2023-02-05T03:17:55.706Z,3.47
2023-02-05T03:20:35.044Z,3.83
2023-02-05T03:23:02.338Z,3.65
2023-02-05T03:25:31.051Z,3.90
2023-02-05T03:28:00.319Z,3.63
2023-02-05T03:31:04.017Z,3.13
2023-02-05T03:33:51.455Z,4.33
2023-02-05T03:36:26.938Z,3.53
2023-02-05T03:39:15.951Z,4.07
2023-02-05T03:44:36.432Z,3.67
2023-02-05T03:47:04.239Z,3.33
2023-02-05T03:49:53.160Z,3.67
2023-02-05T03:52:27.318Z,3.40
2023-02-05T03:55:00.470Z,3.67
2023-02-05T03:57:49.730Z,3.40
2023-02-05T04:00:18.115Z,3.27
2023-02-05T04:02:47.337Z,3.25
2023-02-05T04:05:23.091Z,3.92
2023-02-05T04:07:52.913Z,3.30
2023-02-05T04:10:23.451Z,4.10
2023-02-05T04:12:51.498Z,3.83
2023-02-05T04:15:19.257Z,3.90
2023-02-05T04:17:50.537Z,4.37
2023-02-05T04:20:18.741Z,3.60
2023-02-05T04:22:45.904Z,3.57
2023-02-05T04:25:13.365Z,3.60
2023-02-05T04:27:40.690Z,4.40
2023-02-05T04:30:08.489Z,3.42
2023-02-05T04:32:39.156Z,4.00
2023-02-05T04:35:06.610Z,3.10
2023-02-05T04:37:33.618Z,3.73
2023-02-05T04:40:00.685Z,3.53
2023-02-05T04:42:27.722Z,4.40
2023-02-05T04:44:54.850Z,4.13
2023-02-05T04:47:21.881Z,3.83
2023-02-05T04:49:49.128Z,3.80
2023-02-05T04:52:16.161Z,4.23
2023-02-05T04:54:43.303Z,3.37
2023-02-05T04:57:10.278Z,3.93
2023-02-05T04:59:37.386Z,3.83
2023-02-05T05:02:04.575Z,3.40
2023-02-05T05:04:31.515Z,4.03
2023-02-05T05:06:58.839Z,3.80
2023-02-05T05:09:26.888Z,3.87
2023-02-05T05:11:56.540Z,3.60
2023-02-05T05:14:23.517Z,3.63
2023-02-05T05:16:50.929Z,3.57
2023-02-05T05:19:18.033Z,4.03
2023-02-05T05:21:45.074Z,3.67
2023-02-05T05:24:15.275Z,3.58
2023-02-05T05:26:45.199Z,3.90
2023-02-05T05:29:13.500Z,3.90
2023-02-05T05:31:41.890Z,3.73
2023-02-05T05:34:09.104Z,4.30
2023-02-05T05:36:36.247Z,4.13
2023-02-05T05:39:22.232Z,3.63
2023-02-05T05:42:07.688Z,3.70
2023-02-05T05:44:34.645Z,4.03
2023-02-05T05:47:01.577Z,7.03
2023-02-05T05:49:28.729Z,4.13
2023-02-05T05:51:55.699Z,4.83
2023-02-05T05:54:23.013Z,3.90
2023-02-05T05:56:50.336Z,4.13
2023-02-05T05:59:17.824Z,4.20
2023-02-05T06:01:44.749Z,4.00
2023-02-05T06:04:12.187Z,3.80
2023-02-05T06:06:39.220Z,5.30
2023-02-05T06:09:06.275Z,4.97
2023-02-05T06:11:33.805Z,5.53
2023-02-05T06:14:00.768Z,4.07
2023-02-05T06:16:27.917Z,5.37
2023-02-05T06:18:55.722Z,4.33
2023-02-05T06:21:23.023Z,4.57
2023-02-05T06:23:50.195Z,5.80
2023-02-05T06:26:18.491Z,5.10
2023-02-05T06:28:45.593Z,4.88
2023-02-05T06:31:12.819Z,4.15
2023-02-05T06:33:39.794Z,5.20
2023-02-05T06:36:07.697Z,4.53
2023-02-05T06:38:34.857Z,4.90
2023-02-05T06:41:01.813Z,4.53
2023-02-05T06:43:28.940Z,5.13
2023-02-05T06:45:55.903Z,5.63
2023-02-05T06:48:23.010Z,5.23
2023-02-05T06:50:49.993Z,4.23
2023-02-05T06:53:17.384Z,3.77
2023-02-05T06:55:45.967Z,4.10
2023-02-05T06:58:13.060Z,4.45
2023-02-05T07:00:40.372Z,4.87
2023-02-05T07:03:07.390Z,4.03
2023-02-05T07:05:35.162Z,5.00
2023-02-05T07:08:04.460Z,4.87
2023-02-05T07:12:58.419Z,6.03
2023-02-05T07:15:25.669Z,4.82
2023-02-05T07:17:52.809Z,4.47
2023-02-05T07:20:20.003Z,4.20
2023-02-05T07:22:47.325Z,4.50
2023-02-05T07:25:14.389Z,4.57
2023-02-05T07:27:41.919Z,4.47
2023-02-05T07:30:09.526Z,4.15
2023-02-05T07:32:36.644Z,3.97
2023-02-05T07:35:03.980Z,4.07
2023-02-05T07:37:31.596Z,4.33
2023-02-05T07:39:58.472Z,3.78
2023-02-05T07:42:25.426Z,4.45
2023-02-05T07:44:57.297Z,5.07
2023-02-05T07:47:24.263Z,4.13
2023-02-05T07:49:51.750Z,4.82
2023-02-05T07:52:18.893Z,4.65
2023-02-05T07:54:46.025Z,4.53
2023-02-05T07:57:12.921Z,3.97
2023-02-05T07:59:39.868Z,4.40
2023-02-05T08:02:07.660Z,4.55
2023-02-05T08:04:34.654Z,5.18
2023-02-05T08:07:01.824Z,5.68
2023-02-05T08:09:29.078Z,5.23
2023-02-05T08:11:56.199Z,5.60
2023-02-05T08:14:23.225Z,5.67
2023-02-05T08:16:50.537Z,5.57
2023-02-05T08:19:18.521Z,5.90
2023-02-05T08:21:45.532Z,6.18
2023-02-05T08:24:12.704Z,4.63
2023-02-05T08:26:40.297Z,4.47
2023-02-05T08:29:08.455Z,4.78
2023-02-05T08:31:36.060Z,4.85
2023-02-05T08:34:03.877Z,5.10
2023-02-05T08:36:31.242Z,5.40
2023-02-05T08:38:58.299Z,4.50
2023-02-05T08:41:25.404Z,2.92
2023-02-05T08:43:52.339Z,3.97
2023-02-05T08:46:22.023Z,3.20
2023-02-05T08:48:49.447Z,3.43
2023-02-05T08:51:17.249Z,3.40
2023-02-05T08:53:44.236Z,2.45
2023-02-05T08:56:14.079Z,2.30
2023-02-05T08:58:42.068Z,2.65
2023-02-05T09:01:15.392Z,3.42
2023-02-05T09:03:42.787Z,2.10
2023-02-05T09:06:13.318Z,2.90
2023-02-05T09:08:40.779Z,2.67
2023-02-05T09:11:08.882Z,2.80
2023-02-05T09:13:36.748Z,3.50
2023-02-05T09:16:03.805Z,2.67
2023-02-05T09:18:31.160Z,2.70
2023-02-05T09:20:58.197Z,2.95
2023-02-05T09:23:25.312Z,2.38
2023-02-05T09:25:52.557Z,1.90
2023-02-05T09:28:19.591Z,2.22
2023-02-05T09:30:46.995Z,2.33
2023-02-05T09:33:14.372Z,6.07
2023-02-05T09:35:42.315Z,2.85
2023-02-05T09:38:12.957Z,2.67
2023-02-05T09:40:50.461Z,2.20
2023-02-05T09:43:38.493Z,2.55
2023-02-05T09:46:17.358Z,2.10
2023-02-05T09:48:54.941Z,2.33
2023-02-05T09:51:33.691Z,2.53
2023-02-05T09:54:12.813Z,4.82
2023-02-05T09:59:07.574Z,2.30
2023-02-05T10:01:43.925Z,3.13
2023-02-05T10:04:11.713Z,2.60
2023-02-05T10:06:54.150Z,2.95
2023-02-05T10:09:21.062Z,2.75
2023-02-05T10:12:14.055Z,2.67
2023-02-05T10:14:52.727Z,2.22
2023-02-05T10:17:56.332Z,2.40
2023-02-05T10:20:39.062Z,5.35
2023-02-05T10:23:34.159Z,3.50
2023-02-05T10:26:13.351Z,6.32
2023-02-05T10:29:04.822Z,3.22
2023-02-05T10:31:41.039Z,2.72
2023-02-05T10:34:18.468Z,3.67
2023-02-05T10:36:52.171Z,3.13
2023-02-05T10:39:23.427Z,2.10
2023-02-05T10:42:16.543Z,2.37
2023-02-05T10:44:46.601Z,2.40
2023-02-05T10:47:44.952Z,2.70
2023-02-05T10:50:23.783Z,3.30
2023-02-05T10:52:51.391Z,2.25
2023-02-05T10:55:18.403Z,2.40
2023-02-05T10:57:45.430Z,6.07
2023-02-05T11:00:21.934Z,2.80
2023-02-05T11:02:54.824Z,2.20
2023-02-05T11:05:34.727Z,3.53
2023-02-05T11:08:01.956Z,2.07
2023-02-05T11:10:31.891Z,2.70
2023-02-05T11:13:20.376Z,2.30
2023-02-05T11:16:04.677Z,1.95
2023-02-05T11:18:57.548Z,2.40
2023-02-05T11:21:46.492Z,2.20
2023-02-05T11:24:25.816Z,3.35
2023-02-05T11:27:16.014Z,2.47
2023-02-05T11:32:35.302Z,2.33
2023-02-05T11:35:18.996Z,1.93
2023-02-05T11:37:48.957Z,2.80
2023-02-05T11:40:26.252Z,2.53
2023-02-05T11:43:08.937Z,1.65
2023-02-05T11:45:39.923Z,2.13
2023-02-05T11:48:41.382Z,3.70
2023-02-05T11:51:11.711Z,15.68
2023-02-05T11:53:55.584Z,1.63
2023-02-05T11:56:25.623Z,1.90
2023-02-05T11:59:16.823Z,2.33
2023-02-05T12:01:46.029Z,3.83
2023-02-05T12:04:19.504Z,3.60
2023-02-05T12:06:52.346Z,2.22
2023-02-05T12:09:25.222Z,3.83
2023-02-05T12:12:28.022Z,2.60
2023-02-05T12:15:13.924Z,4.35
2023-02-05T12:18:14.732Z,1.83
2023-02-05T12:20:46.163Z,2.05
2023-02-05T12:23:25.820Z,2.10
2023-02-05T12:26:08.646Z,2.10
2023-02-05T12:28:42.016Z,4.40
2023-02-05T12:31:25.042Z,2.70
2023-02-05T12:34:24.792Z,5.40
2023-02-05T12:37:05.331Z,3.95
2023-02-05T12:39:47.731Z,3.45
2023-02-05T12:42:33.174Z,3.83
2023-02-05T12:45:18.884Z,5.65
2023-02-05T12:47:57.678Z,3.17
2023-02-05T12:50:47.701Z,4.40
2023-02-05T12:53:52.292Z,3.78
2023-02-05T12:56:28.157Z,3.88
2023-02-05T12:59:09.611Z,4.03
2023-02-05T13:01:53.953Z,4.75
2023-02-05T13:04:56.216Z,23.92
2023-02-05T13:07:35.449Z,4.65
2023-02-05T13:12:43.413Z,5.47
2023-02-05T13:15:16.610Z,4.72
2023-02-05T13:18:01.960Z,4.38
2023-02-05T13:20:55.259Z,4.93
2023-02-05T13:23:41.646Z,4.30
2023-02-05T13:26:24.691Z,4.60
2023-02-05T13:29:10.503Z,4.97
2023-02-05T13:31:48.412Z,5.88
2023-02-05T13:34:17.035Z,5.25
2023-02-05T13:36:52.999Z,3.70
2023-02-05T13:39:38.754Z,3.83
2023-02-05T13:42:47.342Z,4.32
2023-02-05T13:45:52.179Z,3.40
2023-02-05T13:48:27.518Z,4.57
2023-02-05T13:51:06.992Z,4.93
2023-02-05T13:53:53.157Z,5.70
2023-02-05T13:56:41.688Z,6.03
2023-02-05T13:59:17.802Z,5.57
2023-02-05T14:01:52.432Z,6.53
2023-02-05T14:04:20.262Z,7.07
2023-02-05T14:07:00.871Z,9.57
2023-02-05T14:09:56.478Z,7.63
2023-02-05T14:12:27.056Z,6.55
2023-02-05T14:15:19.741Z,6.60
2023-02-05T14:17:46.808Z,7.05
2023-02-05T14:20:41.703Z,6.90
2023-02-05T14:23:14.585Z,7.55
2023-02-05T14:25:42.824Z,6.07
2023-02-05T14:28:16.185Z,9.83
2023-02-05T14:30:52.243Z,10.27
2023-02-05T14:33:43.457Z,6.97
2023-02-05T14:36:24.394Z,6.25
2023-02-05T14:38:51.248Z,6.60
2023-02-05T14:41:21.391Z,7.30
2023-02-05T14:44:05.870Z,6.60
2023-02-05T14:46:44.530Z,6.63
2023-02-05T14:49:37.958Z,7.35
2023-02-05T14:52:46.290Z,6.90
2023-02-05T14:55:13.257Z,10.48
2023-02-05T14:57:40.072Z,6.10
2023-02-05T15:00:27.955Z,10.30
2023-02-05T15:03:15.288Z,10.75
2023-02-05T15:05:45.719Z,6.13
2023-02-05T15:08:34.038Z,6.40
2023-02-05T15:11:10.064Z,7.45
2023-02-05T15:13:38.342Z,7.97
2023-02-05T15:16:11.691Z,9.00
2023-02-05T15:18:40.163Z,7.63
2023-02-05T15:21:16.355Z,8.73
2023-02-05T15:23:52.157Z,8.13
2023-02-05T15:26:40.096Z,9.27
2023-02-05T15:29:25.762Z,9.03
2023-02-05T15:31:56.461Z,15.10
2023-02-05T15:34:37.473Z,11.95
2023-02-05T15:37:21.053Z,10.53
2023-02-05T15:39:53.765Z,9.50
2023-02-05T15:42:26.922Z,10.20
2023-02-05T15:44:53.884Z,10.52
2023-02-05T15:47:23.657Z,8.00
2023-02-05T15:49:55.076Z,9.50
2023-02-05T15:52:29.008Z,8.60
2023-02-05T15:55:08.954Z,6.70
2023-02-05T15:57:36.203Z,8.43
2023-02-05T16:00:08.585Z,12.67
2023-02-05T16:02:36.816Z,6.40
2023-02-05T16:05:18.917Z,9.10
2023-02-05T16:07:51.853Z,9.73
2023-02-05T16:10:27.781Z,7.90
2023-02-05T16:13:15.717Z,6.23
2023-02-05T16:16:24.258Z,9.00
2023-02-05T16:18:57.112Z,18.13
2023-02-05T16:21:25.820Z,7.87
2023-02-05T16:24:07.443Z,9.70
2023-02-05T16:26:44.047Z,8.53
2023-02-05T16:29:38.978Z,7.77
2023-02-05T16:32:36.393Z,6.57
2023-02-05T16:35:08.014Z,7.90
2023-02-05T16:37:36.218Z,6.33
2023-02-05T16:40:06.942Z,7.03
2023-02-05T16:42:43.488Z,9.80
2023-02-05T16:45:10.660Z,10.00
2023-02-05T16:47:39.009Z,8.10
2023-02-05T16:50:38.614Z,8.65
2023-02-05T16:53:19.226Z,12.80
2023-02-05T16:55:47.464Z,8.70
2023-02-05T16:58:22.727Z,7.13
2023-02-05T17:01:02.019Z,9.80
2023-02-05T17:03:35.503Z,10.10
2023-02-05T17:06:11.190Z,9.57
2023-02-05T17:08:38.380Z,10.43
2023-02-05T17:11:26.905Z,7.30
2023-02-05T17:14:11.634Z,8.82
2023-02-05T17:16:42.723Z,9.17
2023-02-05T17:19:30.557Z,7.60
2023-02-05T17:22:15.989Z,7.33
2023-02-05T17:24:49.322Z,8.13
2023-02-05T17:27:23.092Z,8.37
2023-02-05T17:29:50.675Z,10.73
2023-02-05T17:32:20.149Z,12.57
2023-02-05T17:34:47.622Z,12.65
2023-02-05T17:37:15.252Z,8.07
2023-02-05T17:39:42.902Z,16.53
2023-02-05T17:42:19.225Z,14.50
2023-02-05T17:44:46.715Z,11.67
2023-02-05T17:47:14.118Z,8.33
2023-02-05T17:49:41.978Z,7.47
2023-02-05T17:52:10.565Z,8.10
2023-02-05T17:54:37.804Z,12.93
2023-02-05T17:57:22.088Z,16.53
2023-02-05T17:59:49.834Z,9.33
2023-02-05T18:02:17.254Z,8.27
2023-02-05T18:04:46.011Z,7.35
2023-02-05T18:07:35.583Z,11.33
2023-02-05T18:10:04.191Z,7.30
2023-02-05T18:12:31.555Z,8.20
2023-02-05T18:14:58.861Z,9.07
2023-02-05T18:17:25.956Z,12.63
2023-02-05T18:19:53.052Z,11.63
2023-02-05T18:22:20.034Z,7.50
2023-02-05T18:24:46.986Z,9.53
2023-02-05T18:27:14.132Z,12.63
2023-02-05T18:29:43.422Z,15.67
2023-02-05T18:32:11.442Z,15.00
2023-02-05T18:34:40.072Z,14.67
2023-02-05T18:37:07.215Z,12.80
2023-02-05T18:39:34.113Z,10.93
2023-02-05T18:42:01.037Z,14.63
2023-02-05T18:44:28.345Z,12.77
2023-02-05T18:46:55.377Z,8.17
2023-02-05T18:49:22.769Z,7.27
2023-02-05T18:51:49.896Z,9.47
2023-02-05T18:54:16.830Z,7.30
2023-02-05T18:56:44.031Z,10.50
2023-02-05T18:59:15.553Z,8.80
2023-02-05T19:01:43.137Z,11.07
2023-02-05T19:04:13.165Z,8.80
2023-02-05T19:06:42.470Z,8.00
2023-02-05T19:09:10.002Z,8.52
2023-02-05T19:11:41.006Z,8.30
2023-02-05T19:14:12.008Z,8.40
2023-02-05T19:16:40.263Z,8.10
2023-02-05T19:19:08.104Z,9.32
2023-02-05T19:21:36.241Z,7.17
2023-02-05T19:24:09.820Z,7.17
2023-02-05T19:26:38.882Z,9.15
2023-02-05T19:29:09.158Z,9.20
2023-02-05T19:31:37.645Z,9.87
2023-02-05T19:34:07.030Z,7.18
2023-02-05T19:36:34.247Z,7.75
2023-02-05T19:39:02.359Z,6.97
2023-02-05T19:41:32.100Z,7.22
2023-02-05T19:44:02.367Z,7.40
2023-02-05T19:46:33.475Z,7.22
2023-02-05T19:49:08.109Z,7.30
2023-02-05T19:51:35.987Z,6.17
2023-02-05T19:54:04.109Z,7.27
2023-02-05T19:56:32.487Z,6.43
2023-02-05T19:58:59.937Z,6.53
2023-02-05T20:01:29.806Z,6.70
2023-02-05T20:04:07.843Z,6.13
2023-02-05T20:06:35.224Z,7.90
2023-02-05T20:09:03.933Z,6.67
2023-02-05T20:11:30.950Z,7.25
2023-02-05T20:14:01.453Z,6.80
2023-02-05T20:16:28.397Z,5.93
2023-02-05T20:18:58.278Z,5.93
2023-02-05T20:21:26.800Z,6.55
2023-02-05T20:23:54.796Z,8.68
2023-02-05T20:26:23.177Z,6.30
2023-02-05T20:29:11.813Z,7.80
2023-02-05T20:31:42.880Z,7.00
2023-02-05T20:34:11.497Z,7.80
2023-02-05T20:36:39.227Z,8.05
2023-02-05T20:39:07.661Z,7.07
2023-02-05T20:41:35.486Z,6.78
2023-02-05T20:44:03.689Z,7.77
2023-02-05T20:46:31.420Z,7.53
2023-02-05T20:49:00.376Z,7.23
2023-02-05T20:53:59.423Z,7.30
2023-02-05T20:56:30.150Z,9.33
2023-02-05T20:59:02.278Z,8.23
2023-02-05T21:01:31.637Z,7.20
2023-02-05T21:06:30.115Z,6.88
2023-02-05T21:08:57.644Z,7.23
2023-02-05T21:11:26.128Z,7.37
2023-02-05T21:13:53.250Z,6.70
2023-02-05T21:16:23.067Z,7.47
2023-02-05T21:18:51.387Z,7.60
2023-02-05T21:21:28.169Z,6.85
2023-02-05T21:24:06.631Z,7.17
2023-02-05T21:26:40.086Z,6.10
2023-02-05T21:29:13.324Z,5.87
2023-02-05T21:31:49.251Z,7.63
2023-02-05T21:34:22.099Z,8.27
2023-02-05T21:36:50.282Z,7.90
2023-02-05T21:39:20.204Z,8.17
2023-02-05T21:41:50.185Z,8.57
2023-02-05T21:44:17.269Z,7.80
2023-02-05T21:46:44.439Z,8.23
2023-02-05T21:49:12.086Z,8.07
2023-02-05T21:51:42.400Z,8.33
2023-02-05T21:54:10.887Z,7.87
2023-02-05T21:56:43.419Z,6.82
2023-02-05T21:59:12.581Z,8.30
2023-02-05T22:01:41.762Z,7.13
2023-02-05T22:04:13.011Z,6.45
2023-02-05T22:06:40.772Z,7.90
2023-02-05T22:09:09.712Z,7.90
2023-02-05T22:14:05.639Z,5.40
2023-02-05T22:16:34.441Z,5.63
2023-02-05T22:19:02.751Z,6.28
2023-02-05T22:21:35.049Z,5.45
2023-02-05T22:24:04.330Z,5.77
2023-02-05T22:26:33.866Z,5.70
2023-02-05T22:29:02.209Z,5.97
2023-02-05T22:31:29.994Z,5.40
2023-02-05T22:33:58.008Z,5.43
2023-02-05T22:36:28.239Z,5.27
2023-02-05T22:38:58.641Z,5.17
2023-02-05T22:41:26.942Z,6.30
2023-02-05T22:43:54.939Z,5.47
2023-02-05T22:46:24.624Z,4.87
2023-02-05T22:48:53.396Z,4.67
2023-02-05T22:51:26.407Z,5.20
2023-02-05T22:53:54.127Z,4.93
2023-02-05T22:56:21.544Z,5.87
2023-02-05T22:58:49.715Z,5.40
2023-02-05T23:01:20.269Z,7.37
2023-02-05T23:03:49.392Z,6.10
2023-02-05T23:06:18.180Z,6.68
2023-02-05T23:08:50.728Z,5.82
2023-02-05T23:11:18.424Z,6.23
2023-02-05T23:13:45.679Z,5.90
2023-02-05T23:16:16.426Z,6.23
2023-02-05T23:18:44.188Z,6.53
2023-02-05T23:21:14.413Z,6.67
2023-02-05T23:23:42.407Z,6.37
2023-02-05T23:26:12.852Z,6.50
2023-02-05T23:28:40.203Z,6.20
2023-02-05T23:31:07.791Z,5.43
2023-02-05T23:33:35.766Z,6.20
2023-02-05T23:36:03.822Z,5.33
2023-02-05T23:38:31.356Z,5.07
2023-02-05T23:40:59.125Z,5.57
2023-02-05T23:43:26.493Z,6.70
2023-02-05T23:45:54.943Z,5.50
2023-02-05T23:48:22.146Z,6.95
2023-02-05T23:50:59.936Z,5.67
2023-02-05T23:53:27.504Z,5.43
2023-02-05T23:55:54.462Z,7.03
2023-02-05T23:58:27.982Z,6.37
